Valley City, Missouri
Current Conditions -  °F | °C
As of 2:58 AM on Saturday 20 Dec 2014 (Local Time) from KSZL Reporting Station
Haze Haze  
Wind Chill: 33°   Ceiling: 200
Heat Index: 37°   Visibility: 0.75mi
Dew Point: 37°   Wind: 5mph
Humidity: 98%   Direction: 190°S
Pressure: 30.2"   Gusts: NA
Location:  38.673°N, 93.5632°W
Report Text: KSZL 200858Z AUTO 19004KT 3/4SM R19/1800FT BR VV002 03/03 A3020 RMK AO2 SLP236 T00280025 55004 $
Loading
Personal Weather Stations






























Interactive Weather Map New forecast layout! Learn more

10-Day Weather Forecast

Advertisements
Track Severe Weather on mobile